createdAt,value
2022-09-25T00:00:21.704Z,0.20
2022-09-25T00:02:51.783Z,0.38
2022-09-25T00:05:21.765Z,0.77
2022-09-25T00:07:51.770Z,0.30
2022-09-25T00:10:21.990Z,0.22
2022-09-25T00:12:51.916Z,0.30
2022-09-25T00:15:21.910Z,0.25
2022-09-25T00:17:52.124Z,0.22
2022-09-25T00:20:22.706Z,0.30
2022-09-25T00:22:53.070Z,0.30
2022-09-25T00:25:23.132Z,0.30
2022-09-25T00:27:56.359Z,0.20
2022-09-25T00:30:26.287Z,0.20
2022-09-25T00:32:55.926Z,0.20
2022-09-25T00:35:25.685Z,0.30
2022-09-25T00:37:55.347Z,0.10
2022-09-25T00:40:26.326Z,0.20
2022-09-25T00:42:56.068Z,0.30
2022-09-25T00:45:25.897Z,0.10
2022-09-25T00:48:07.357Z,0.20
2022-09-25T00:50:45.605Z,0.20
2022-09-25T00:53:23.055Z,0.20
2022-09-25T00:55:54.026Z,0.20
2022-09-25T00:58:26.548Z,0.50
2022-09-25T01:00:56.833Z,0.50
2022-09-25T01:03:29.266Z,0.25
2022-09-25T01:06:02.364Z,0.30
2022-09-25T01:08:35.351Z,0.40
2022-09-25T01:11:05.267Z,0.50
2022-09-25T01:13:35.361Z,0.30
2022-09-25T01:16:23.424Z,0.38
2022-09-25T01:19:24.480Z,0.30
2022-09-25T01:22:17.957Z,0.30
2022-09-25T01:25:13.862Z,0.82
2022-09-25T01:28:11.806Z,0.30
2022-09-25T01:30:46.767Z,0.15
2022-09-25T01:33:25.617Z,0.28
2022-09-25T01:36:10.218Z,0.30
2022-09-25T01:38:54.345Z,0.13
2022-09-25T01:42:03.278Z,0.30
2022-09-25T01:44:38.993Z,0.30
2022-09-25T01:47:12.942Z,0.30
2022-09-25T01:49:49.465Z,0.25
2022-09-25T01:52:27.722Z,0.20
2022-09-25T01:55:07.444Z,0.40
2022-09-25T01:58:16.263Z,0.40
2022-09-25T02:00:53.423Z,0.50
2022-09-25T02:03:29.932Z,0.50
2022-09-25T02:06:07.101Z,0.32
2022-09-25T02:08:49.355Z,0.50
2022-09-25T02:11:19.478Z,0.30
2022-09-25T02:14:04.757Z,0.52
2022-09-25T02:16:45.995Z,0.40
2022-09-25T02:19:38.008Z,0.90
2022-09-25T02:22:26.998Z,0.57
2022-09-25T02:25:09.095Z,0.68
2022-09-25T02:27:39.723Z,1.02
2022-09-25T02:30:10.203Z,0.70
2022-09-25T02:32:40.526Z,0.70
2022-09-25T02:35:11.364Z,0.93
2022-09-25T02:37:41.365Z,0.80
2022-09-25T02:40:13.337Z,0.70
2022-09-25T02:43:13.493Z,0.60
2022-09-25T02:46:15.480Z,0.75
2022-09-25T02:49:17.578Z,0.95
2022-09-25T02:52:08.864Z,0.80
2022-09-25T02:54:56.144Z,0.93
2022-09-25T02:57:49.067Z,0.80
2022-09-25T03:00:19.847Z,0.80
2022-09-25T03:02:52.454Z,0.80
2022-09-25T03:05:24.026Z,0.80
2022-09-25T03:08:14.949Z,0.77
2022-09-25T03:10:47.841Z,0.90
2022-09-25T03:13:24.801Z,1.00
2022-09-25T03:16:01.843Z,1.00
2022-09-25T03:18:33.106Z,1.30
2022-09-25T03:21:03.068Z,1.42
2022-09-25T03:23:34.693Z,1.23
2022-09-25T03:26:06.300Z,1.13
2022-09-25T03:28:37.094Z,1.27
2022-09-25T03:31:10.846Z,1.17
2022-09-25T03:33:43.120Z,1.33
2022-09-25T03:36:22.621Z,1.40
2022-09-25T03:38:57.162Z,1.40
2022-09-25T03:41:29.881Z,1.20
2022-09-25T03:44:00.377Z,1.80
2022-09-25T03:46:32.272Z,1.42
2022-09-25T03:49:03.355Z,1.40
2022-09-25T03:51:34.511Z,1.50
2022-09-25T03:54:05.723Z,2.03
2022-09-25T03:56:35.395Z,2.60
2022-09-25T03:59:05.060Z,3.40
2022-09-25T04:01:35.100Z,2.92
2022-09-25T04:04:04.856Z,3.10
2022-09-25T04:06:34.457Z,3.50
2022-09-25T04:09:04.043Z,3.15
2022-09-25T04:11:33.687Z,2.95
2022-09-25T04:14:03.903Z,2.70
2022-09-25T04:16:33.550Z,3.70
2022-09-25T04:19:03.241Z,4.95
2022-09-25T04:21:32.881Z,3.65
2022-09-25T04:24:22.110Z,3.25
2022-09-25T04:26:55.418Z,2.40
2022-09-25T04:29:26.497Z,2.83
2022-09-25T04:32:15.767Z,2.90
2022-09-25T04:34:45.326Z,2.50
2022-09-25T04:37:15.773Z,2.53
2022-09-25T04:39:45.418Z,2.95
2022-09-25T04:42:15.140Z,1.98
2022-09-25T04:44:44.774Z,1.83
2022-09-25T04:47:14.970Z,2.03
2022-09-25T04:49:44.523Z,1.80
2022-09-25T04:52:18.977Z,1.48
2022-09-25T04:54:49.468Z,1.67
2022-09-25T04:57:46.038Z,2.53
2022-09-25T05:00:18.815Z,1.48
2022-09-25T05:02:49.868Z,1.70
2022-09-25T05:05:21.613Z,1.63
2022-09-25T05:07:55.863Z,1.27
2022-09-25T05:10:28.940Z,1.50
2022-09-25T05:13:04.662Z,1.30
2022-09-25T05:15:35.663Z,1.10
2022-09-25T05:18:14.676Z,1.20
2022-09-25T05:20:44.242Z,1.23
2022-09-25T05:23:17.934Z,1.17
2022-09-25T05:25:56.992Z,1.30
2022-09-25T05:28:27.593Z,0.80
2022-09-25T05:31:01.750Z,1.08
2022-09-25T05:33:35.677Z,0.73
2022-09-25T05:36:07.146Z,0.90
2022-09-25T05:38:39.567Z,0.75
2022-09-25T05:41:13.783Z,0.80
2022-09-25T05:43:46.534Z,0.90
2022-09-25T05:46:17.980Z,0.57
2022-09-25T05:48:48.040Z,0.50
2022-09-25T05:51:18.094Z,0.43
2022-09-25T05:53:49.310Z,0.70
2022-09-25T05:56:19.311Z,0.60
2022-09-25T05:58:50.966Z,0.85
2022-09-25T06:01:21.342Z,0.90
2022-09-25T06:03:51.367Z,0.70
2022-09-25T06:06:25.162Z,0.98
2022-09-25T06:08:58.169Z,1.00
2022-09-25T06:11:28.774Z,0.95
2022-09-25T06:13:59.346Z,1.00
2022-09-25T06:16:30.093Z,0.80
2022-09-25T06:19:00.133Z,1.10
2022-09-25T06:21:30.255Z,0.88
2022-09-25T06:24:00.419Z,0.73
2022-09-25T06:26:31.278Z,0.98
2022-09-25T06:29:03.336Z,0.82
2022-09-25T06:31:34.516Z,0.70
2022-09-25T06:34:04.829Z,0.80
2022-09-25T06:36:35.070Z,0.70
2022-09-25T06:39:05.322Z,0.73
2022-09-25T06:41:35.279Z,0.40
2022-09-25T06:44:05.497Z,0.40
2022-09-25T06:46:35.573Z,0.50
2022-09-25T06:49:05.972Z,0.40
2022-09-25T06:51:37.781Z,0.40
2022-09-25T06:54:08.425Z,0.43
2022-09-25T06:56:38.523Z,0.43
2022-09-25T06:59:08.574Z,0.47
2022-09-25T07:01:38.828Z,0.50
2022-09-25T07:04:08.961Z,0.47
2022-09-25T07:06:39.698Z,0.35
2022-09-25T07:09:09.828Z,0.40
2022-09-25T07:11:39.957Z,0.75
2022-09-25T07:14:11.565Z,0.63
2022-09-25T07:16:41.647Z,0.40
2022-09-25T07:19:12.548Z,0.30
2022-09-25T07:21:42.597Z,0.65
2022-09-25T07:24:12.776Z,0.40
2022-09-25T07:26:43.778Z,0.60
2022-09-25T07:29:14.410Z,0.43
2022-09-25T07:31:46.198Z,0.43
2022-09-25T07:34:16.993Z,0.50
2022-09-25T07:36:47.859Z,0.43
2022-09-25T07:39:18.835Z,0.50
2022-09-25T07:41:49.599Z,0.55
2022-09-25T07:44:38.191Z,0.70
2022-09-25T07:47:10.668Z,0.60
2022-09-25T07:49:41.870Z,0.50
2022-09-25T07:52:11.886Z,0.50
2022-09-25T07:54:42.043Z,0.60
2022-09-25T07:57:12.337Z,0.57
2022-09-25T07:59:42.348Z,0.80
2022-09-25T08:02:12.499Z,0.80
2022-09-25T08:04:42.745Z,0.73
2022-09-25T08:07:13.069Z,0.52
2022-09-25T08:09:43.422Z,0.70
2022-09-25T08:12:14.827Z,0.45
2022-09-25T08:14:44.882Z,0.50
2022-09-25T08:17:15.109Z,0.50
2022-09-25T08:19:45.102Z,0.50
2022-09-25T08:22:15.599Z,0.60
2022-09-25T08:24:45.653Z,0.70
2022-09-25T08:27:16.243Z,0.63
2022-09-25T08:29:45.901Z,0.60
2022-09-25T08:32:15.746Z,0.70
2022-09-25T08:34:45.659Z,0.90
2022-09-25T08:37:15.479Z,0.63
2022-09-25T08:39:45.457Z,0.75
2022-09-25T08:42:33.946Z,0.77
2022-09-25T08:45:26.898Z,0.70
2022-09-25T08:48:18.379Z,0.57
2022-09-25T08:50:48.185Z,0.70
2022-09-25T08:53:28.221Z,1.30
2022-09-25T08:56:18.370Z,1.40
2022-09-25T08:59:25.541Z,0.82
2022-09-25T09:02:01.188Z,1.25
2022-09-25T09:04:45.598Z,0.95
2022-09-25T09:07:38.927Z,1.15
2022-09-25T09:10:45.500Z,1.30
2022-09-25T09:13:43.648Z,1.63
2022-09-25T09:16:33.834Z,1.23
2022-09-25T09:19:07.246Z,1.27
2022-09-25T09:21:40.448Z,1.00
2022-09-25T09:24:28.885Z,1.00
2022-09-25T09:27:38.723Z,0.90
2022-09-25T09:30:31.800Z,0.57
2022-09-25T09:33:43.217Z,0.80
2022-09-25T09:36:52.092Z,1.00
2022-09-25T09:39:43.326Z,1.13
2022-09-25T09:42:45.901Z,1.10
2022-09-25T09:45:31.112Z,1.15
2022-09-25T09:48:36.784Z,1.10
2022-09-25T09:51:29.622Z,1.10
2022-09-25T09:54:30.867Z,1.20
2022-09-25T09:57:03.008Z,1.20
2022-09-25T09:59:52.161Z,1.30
2022-09-25T10:02:52.634Z,1.10
2022-09-25T10:05:34.232Z,1.50
2022-09-25T10:08:04.659Z,1.38
2022-09-25T10:10:39.752Z,1.20
2022-09-25T10:13:27.227Z,1.25
2022-09-25T10:16:13.068Z,1.30
2022-09-25T10:19:16.387Z,1.27
2022-09-25T10:21:51.273Z,1.40
2022-09-25T10:25:07.083Z,0.98
2022-09-25T10:27:47.781Z,1.10
2022-09-25T10:30:23.473Z,1.30
2022-09-25T10:33:15.181Z,1.00
2022-09-25T10:35:48.178Z,1.40
2022-09-25T10:38:40.696Z,1.30
2022-09-25T10:41:20.127Z,1.20
2022-09-25T10:43:57.848Z,1.40
2022-09-25T10:46:58.230Z,1.02
2022-09-25T10:49:49.699Z,1.10
2022-09-25T10:52:23.948Z,1.02
2022-09-25T10:54:57.774Z,0.75
2022-09-25T10:57:39.884Z,0.95
2022-09-25T11:00:24.301Z,1.08
2022-09-25T11:03:03.163Z,0.80
2022-09-25T11:05:35.493Z,0.63
2022-09-25T11:08:09.185Z,0.73
2022-09-25T11:10:58.719Z,1.13
2022-09-25T11:13:48.124Z,0.82
2022-09-25T11:16:19.113Z,1.02
2022-09-25T11:18:53.250Z,1.00
2022-09-25T11:21:54.118Z,1.20
2022-09-25T11:24:48.739Z,0.70
2022-09-25T11:27:44.850Z,0.90
2022-09-25T11:30:19.820Z,1.10
2022-09-25T11:33:28.491Z,1.20
2022-09-25T11:36:08.075Z,1.20
2022-09-25T11:39:18.390Z,0.80
2022-09-25T11:42:02.067Z,1.13
2022-09-25T11:45:10.888Z,0.98
2022-09-25T11:47:56.898Z,1.10
2022-09-25T11:50:39.268Z,1.17
2022-09-25T11:53:47.938Z,1.08
2022-09-25T11:56:42.650Z,1.00
2022-09-25T11:59:45.028Z,1.45
2022-09-25T12:02:53.886Z,1.20
2022-09-25T12:05:51.010Z,1.17
2022-09-25T12:08:40.575Z,1.50
2022-09-25T12:11:45.061Z,1.20
2022-09-25T12:14:42.995Z,1.08
2022-09-25T12:17:44.511Z,0.98
2022-09-25T12:20:43.524Z,1.13
2022-09-25T12:23:33.539Z,1.00
2022-09-25T12:26:27.156Z,1.20
2022-09-25T12:29:33.896Z,0.93
2022-09-25T12:32:39.846Z,0.80
2022-09-25T12:35:43.153Z,0.85
2022-09-25T12:38:52.200Z,1.25
2022-09-25T12:41:42.487Z,0.90
2022-09-25T12:44:39.427Z,1.33
2022-09-25T12:47:36.856Z,1.00
2022-09-25T12:50:21.112Z,1.15
2022-09-25T12:52:59.128Z,1.48
2022-09-25T12:55:52.748Z,2.03
2022-09-25T12:58:53.651Z,1.23
2022-09-25T13:01:32.016Z,1.33
2022-09-25T13:04:20.867Z,0.90
2022-09-25T13:07:25.257Z,1.00
2022-09-25T13:09:57.677Z,1.20
2022-09-25T13:12:37.464Z,0.90
2022-09-25T13:15:17.744Z,0.95
2022-09-25T13:17:47.977Z,1.10
2022-09-25T13:20:49.382Z,1.27
2022-09-25T13:23:34.646Z,1.02
2022-09-25T13:26:18.126Z,1.30
2022-09-25T13:29:13.128Z,0.90
2022-09-25T13:31:46.114Z,1.30
2022-09-25T13:34:19.361Z,0.88
2022-09-25T13:36:59.295Z,1.10
2022-09-25T13:40:02.477Z,0.95
2022-09-25T13:42:47.920Z,1.50
2022-09-25T13:45:37.989Z,0.93
2022-09-25T13:48:34.796Z,1.38
2022-09-25T13:51:36.750Z,1.50
2022-09-25T13:54:27.648Z,1.10
2022-09-25T13:56:57.359Z,0.93
2022-09-25T13:59:41.352Z,1.23
2022-09-25T14:02:42.929Z,1.25
2022-09-25T14:05:18.393Z,1.60
2022-09-25T14:07:57.504Z,1.30
2022-09-25T14:10:28.317Z,0.90
2022-09-25T14:13:00.170Z,1.10
2022-09-25T14:15:39.325Z,0.90
2022-09-25T14:18:38.016Z,1.13
2022-09-25T14:21:11.351Z,1.02
2022-09-25T14:24:13.556Z,1.05
2022-09-25T14:26:49.815Z,1.35
2022-09-25T14:29:24.753Z,1.40
2022-09-25T14:36:06.523Z,1.08
2022-09-25T14:39:01.801Z,1.05
2022-09-25T14:42:04.803Z,1.50
2022-09-25T14:45:14.466Z,1.10
2022-09-25T14:47:47.142Z,1.05
2022-09-25T14:50:29.471Z,1.08
2022-09-25T14:53:04.105Z,1.00
2022-09-25T14:55:39.606Z,1.23
2022-09-25T14:58:17.846Z,0.88
2022-09-25T15:00:54.910Z,1.33
2022-09-25T15:03:29.650Z,1.00
2022-09-25T15:06:03.975Z,1.02
2022-09-25T15:08:43.322Z,1.35
2022-09-25T15:11:21.248Z,1.30
2022-09-25T15:13:51.092Z,1.08
2022-09-25T15:16:47.996Z,1.20
2022-09-25T15:19:24.722Z,1.17
2022-09-25T15:21:55.733Z,1.40
2022-09-25T15:24:34.418Z,1.02
2022-09-25T15:29:44.293Z,1.00
2022-09-25T15:32:30.607Z,1.45
2022-09-25T15:35:21.160Z,0.90
2022-09-25T15:37:51.634Z,1.13
2022-09-25T15:40:32.054Z,1.55
2022-09-25T15:43:04.428Z,1.10
2022-09-25T15:45:51.360Z,1.00
2022-09-25T15:48:31.950Z,1.60
2022-09-25T15:51:16.317Z,1.42
2022-09-25T15:53:54.817Z,1.80
2022-09-25T15:56:49.009Z,1.17
2022-09-25T16:00:04.026Z,1.40
2022-09-25T16:02:59.133Z,1.55
2022-09-25T16:05:36.133Z,1.17
2022-09-25T16:08:36.333Z,1.52
2022-09-25T16:11:27.901Z,1.60
2022-09-25T16:14:23.744Z,1.50
2022-09-25T16:16:53.967Z,1.60
2022-09-25T16:19:35.798Z,1.38
2022-09-25T16:22:26.767Z,1.80
2022-09-25T16:24:57.620Z,1.60
2022-09-25T16:27:33.057Z,1.48
2022-09-25T16:30:04.996Z,1.27
2022-09-25T16:32:35.175Z,1.50
2022-09-25T16:35:05.789Z,1.58
2022-09-25T16:37:37.664Z,1.83
2022-09-25T16:40:36.196Z,1.73
2022-09-25T16:43:06.795Z,1.20
2022-09-25T16:45:37.552Z,1.50
2022-09-25T16:48:42.469Z,1.10
2022-09-25T16:51:23.392Z,1.90
2022-09-25T16:53:54.016Z,1.67
2022-09-25T16:56:34.897Z,1.80
2022-09-25T16:59:05.890Z,1.65
2022-09-25T17:01:35.775Z,1.58
2022-09-25T17:04:05.644Z,1.63
2022-09-25T17:06:39.184Z,1.40
2022-09-25T17:09:14.260Z,1.75
2022-09-25T17:11:48.822Z,1.60
2022-09-25T17:14:28.159Z,1.52
2022-09-25T17:16:59.103Z,1.38
2022-09-25T17:19:29.387Z,1.40
2022-09-25T17:21:59.766Z,1.83
2022-09-25T17:24:32.201Z,1.10
2022-09-25T17:27:02.108Z,1.90
2022-09-25T17:29:31.747Z,1.95
2022-09-25T17:32:01.887Z,1.35
2022-09-25T17:34:33.389Z,1.23
2022-09-25T17:37:03.644Z,1.45
2022-09-25T17:39:33.633Z,1.77
2022-09-25T17:42:04.700Z,1.23
2022-09-25T17:44:34.711Z,1.20
2022-09-25T17:47:04.741Z,1.42
2022-09-25T17:49:34.689Z,1.50
2022-09-25T17:52:05.446Z,1.13
2022-09-25T17:54:35.398Z,1.40
2022-09-25T17:57:05.366Z,1.20
2022-09-25T17:59:35.389Z,1.55
2022-09-25T18:02:05.497Z,1.40
2022-09-25T18:04:35.509Z,1.60
2022-09-25T18:07:05.593Z,1.67
2022-09-25T18:09:35.512Z,1.60
2022-09-25T18:12:05.608Z,1.88
2022-09-25T18:14:35.869Z,1.73
2022-09-25T18:17:05.863Z,1.63
2022-09-25T18:19:55.458Z,1.45
2022-09-25T18:22:27.160Z,1.70
2022-09-25T18:25:00.697Z,1.90
2022-09-25T18:27:34.186Z,1.63
2022-09-25T18:30:04.287Z,2.03
2022-09-25T18:32:34.695Z,1.55
2022-09-25T18:35:04.644Z,1.60
2022-09-25T18:37:34.756Z,1.80
2022-09-25T18:40:05.502Z,1.33
2022-09-25T18:42:35.683Z,1.30
2022-09-25T18:45:06.875Z,1.52
2022-09-25T18:47:37.223Z,1.40
2022-09-25T18:50:07.921Z,1.20
2022-09-25T18:52:38.287Z,1.67
2022-09-25T18:55:08.897Z,1.52
2022-09-25T18:57:40.677Z,1.40
2022-09-25T19:00:11.454Z,1.50
2022-09-25T19:02:43.113Z,1.55
2022-09-25T19:05:13.637Z,1.90
2022-09-25T19:07:43.631Z,1.95
2022-09-25T19:10:14.597Z,1.40
2022-09-25T19:12:46.778Z,1.30
2022-09-25T19:15:17.235Z,1.92
2022-09-25T19:17:47.338Z,1.67
2022-09-25T19:20:19.321Z,1.08
2022-09-25T19:22:49.498Z,1.30
2022-09-25T19:25:22.472Z,1.48
2022-09-25T19:27:53.173Z,1.27
2022-09-25T19:30:23.218Z,1.52
2022-09-25T19:32:52.855Z,1.95
2022-09-25T19:35:22.439Z,1.70
2022-09-25T19:37:52.084Z,1.35
2022-09-25T19:40:41.308Z,1.08
2022-09-25T19:43:11.383Z,1.17
2022-09-25T19:45:40.967Z,1.02
2022-09-25T19:48:10.641Z,1.08
2022-09-25T19:50:43.307Z,0.73
2022-09-25T19:53:12.959Z,1.15
2022-09-25T19:55:44.574Z,1.23
2022-09-25T19:58:14.189Z,0.90
2022-09-25T20:00:44.475Z,0.85
2022-09-25T20:03:14.295Z,0.90
2022-09-25T20:05:45.517Z,0.82
2022-09-25T20:08:15.135Z,1.42
2022-09-25T20:10:45.033Z,1.10
2022-09-25T20:13:15.290Z,1.10
2022-09-25T20:15:47.585Z,1.20
2022-09-25T20:18:18.517Z,1.20
2022-09-25T20:20:48.083Z,1.08
2022-09-25T20:23:17.754Z,0.93
2022-09-25T20:25:47.377Z,0.82
2022-09-25T20:28:17.647Z,1.15
2022-09-25T20:30:47.284Z,0.90
2022-09-25T20:33:17.028Z,1.00
2022-09-25T20:35:46.603Z,1.52
2022-09-25T20:38:16.264Z,1.17
2022-09-25T20:40:45.949Z,0.85
2022-09-25T20:43:15.853Z,1.23
2022-09-25T20:45:45.512Z,1.00
2022-09-25T20:48:19.162Z,1.15
2022-09-25T20:50:53.068Z,0.88
2022-09-25T20:53:23.053Z,0.90
2022-09-25T20:55:53.076Z,1.17
2022-09-25T20:58:22.851Z,1.10
2022-09-25T21:00:53.058Z,1.20
2022-09-25T21:03:22.659Z,1.10
2022-09-25T21:05:52.287Z,0.93
2022-09-25T21:08:21.880Z,1.40
2022-09-25T21:10:53.438Z,0.90
2022-09-25T21:13:23.358Z,0.80
2022-09-25T21:15:53.205Z,0.80
2022-09-25T21:18:23.393Z,0.98
2022-09-25T21:20:53.015Z,1.20
2022-09-25T21:23:22.822Z,0.88
2022-09-25T21:25:53.302Z,1.23
2022-09-25T21:28:24.011Z,1.50
2022-09-25T21:30:54.104Z,1.17
2022-09-25T21:33:24.098Z,1.00
2022-09-25T21:35:54.098Z,1.17
2022-09-25T21:38:23.973Z,1.30
2022-09-25T21:40:58.547Z,0.80
2022-09-25T21:43:30.119Z,1.00
2022-09-25T21:46:05.050Z,1.05
2022-09-25T21:48:36.545Z,1.05
2022-09-25T21:51:08.209Z,0.90
2022-09-25T21:53:39.413Z,1.33
2022-09-25T21:56:21.430Z,1.65
2022-09-25T21:58:53.420Z,1.42
2022-09-25T22:01:25.722Z,1.25
2022-09-25T22:03:58.292Z,1.00
2022-09-25T22:06:39.090Z,1.10
2022-09-25T22:09:16.831Z,1.15
2022-09-25T22:11:47.339Z,1.15
2022-09-25T22:14:18.053Z,1.13
2022-09-25T22:16:50.530Z,1.35
2022-09-25T22:19:29.391Z,1.10
2022-09-25T22:22:00.988Z,1.42
2022-09-25T22:24:31.041Z,1.20
2022-09-25T22:27:01.062Z,1.15
2022-09-25T22:29:31.569Z,1.10
2022-09-25T22:32:02.661Z,1.00
2022-09-25T22:34:32.748Z,0.80
2022-09-25T22:37:02.747Z,0.70
2022-09-25T22:39:32.979Z,0.80
2022-09-25T22:42:02.961Z,1.00
2022-09-25T22:44:32.915Z,1.23
2022-09-25T22:47:04.149Z,1.35
2022-09-25T22:49:34.278Z,0.88
2022-09-25T22:52:04.366Z,1.75
2022-09-25T22:54:34.336Z,0.80
2022-09-25T22:57:04.277Z,0.90
2022-09-25T22:59:34.193Z,1.00
2022-09-25T23:02:04.193Z,1.13
2022-09-25T23:04:34.213Z,0.95
2022-09-25T23:07:04.141Z,1.27
2022-09-25T23:09:34.062Z,1.40
2022-09-25T23:12:04.226Z,0.60
2022-09-25T23:14:34.330Z,0.88
2022-09-25T23:17:04.896Z,0.98
2022-09-25T23:19:34.828Z,0.70
2022-09-25T23:22:05.028Z,1.13
2022-09-25T23:24:35.367Z,1.10
2022-09-25T23:27:05.979Z,1.08
2022-09-25T23:29:35.993Z,0.80
2022-09-25T23:32:09.649Z,0.70
2022-09-25T23:34:39.658Z,0.90
2022-09-25T23:37:09.672Z,0.75
2022-09-25T23:39:39.511Z,0.88
2022-09-25T23:42:09.742Z,1.13
2022-09-25T23:44:39.715Z,1.15
2022-09-25T23:47:09.647Z,1.20
2022-09-25T23:49:39.599Z,0.90
2022-09-25T23:52:09.857Z,1.00
2022-09-25T23:54:39.887Z,0.82
2022-09-25T23:57:10.210Z,1.48
2022-09-25T23:59:40.117Z,0.77
